Time;durP1;ratioP1;P1;durP2;ratioP2;P2;SDS_P1;SDS_P2;PMS_P1;PMS_P2;Temp;Humidity;BMP_temperature;BMP_pressure;BME280_temperature;BME280_humidity;BME280_pressure;Samples;Min_cycle;Max_cycle;Signal;HPM_P1;HPM_P2
2023/02/24 00:01:50;;;;;;;98.70;48.08;;;8.10;99.90;;;;;;4904699;29;20040;-74
2023/02/24 00:04:17;;;;;;;93.53;47.63;;;8.00;99.90;;;;;;4895081;29;20029;-75
2023/02/24 00:06:43;;;;;;;100.43;48.85;;;8.00;99.90;;;;;;4904079;29;20463;-75
2023/02/24 00:09:18;;;;;;;91.50;46.45;;;8.10;99.90;;;;;;4899966;29;20040;-75
2023/02/24 00:11:53;;;;;;;89.70;44.38;;;8.10;99.90;;;;;;4898510;29;20040;-75
2023/02/24 00:14:19;;;;;;;;;;;8.10;99.90;;;;;;4896704;29;20075;-75
2023/02/24 00:16:46;;;;;;;102.78;48.97;;;7.90;99.90;;;;;;4901072;29;19971;-75
2023/02/24 00:19:16;;;;;;;103.70;49.15;;;7.80;99.90;;;;;;4899458;29;20032;-75
2023/02/24 00:21:42;;;;;;;104.32;48.92;;;7.90;99.90;;;;;;4900253;29;20047;-75
2023/02/24 00:24:09;;;;;;;101.07;49.50;;;7.90;99.90;;;;;;4901906;29;20642;-75
2023/02/24 00:26:35;;;;;;;101.43;53.40;;;7.90;99.90;;;;;;4898812;29;20457;-74
2023/02/24 00:29:05;;;;;;;102.63;48.88;;;7.80;99.90;;;;;;4911927;29;20037;-74
2023/02/24 00:31:31;;;;;;;102.82;48.80;;;7.90;99.90;;;;;;4901034;29;20043;-75
2023/02/24 00:33:59;;;;;;;93.47;48.13;;;7.90;99.90;;;;;;4901250;29;20059;-74
2023/02/24 00:36:27;;;;;;;96.07;46.38;;;8.00;99.90;;;;;;4900288;29;20031;-75
2023/02/24 00:38:57;;;;;;;104.90;47.42;;;7.90;99.90;;;;;;4900926;29;20036;-75
2023/02/24 00:41:29;;;;;;;80.85;39.33;;;8.10;99.90;;;;;;4901666;29;20072;-75
2023/02/24 00:44:04;;;;;;;90.28;42.83;;;8.10;99.90;;;;;;4901491;29;20024;-75
2023/02/24 00:46:31;;;;;;;89.60;43.20;;;8.30;99.90;;;;;;4898957;29;20486;-75
2023/02/24 00:48:56;;;;;;;99.80;46.90;;;8.30;99.90;;;;;;4897986;29;20056;-75
2023/02/24 00:51:25;;;;;;;83.50;42.88;;;8.30;99.90;;;;;;4900430;29;20032;-75
2023/02/24 00:53:56;;;;;;;87.75;42.30;;;8.30;99.90;;;;;;4901504;29;20028;-74
2023/02/24 00:56:25;;;;;;;80.32;39.22;;;8.30;99.90;;;;;;4900987;29;20735;-76
2023/02/24 00:58:52;;;;;;;81.65;39.95;;;8.20;99.90;;;;;;4899529;29;20042;-75
2023/02/24 01:01:22;;;;;;;78.70;41.17;;;8.20;99.90;;;;;;4901219;29;20099;-75
2023/02/24 01:03:48;;;;;;;73.55;38.03;;;8.30;99.90;;;;;;4901291;29;20047;-74
2023/02/24 01:06:16;;;;;;;83.03;41.75;;;8.20;99.90;;;;;;4899090;29;20553;-75
2023/02/24 01:08:46;;;;;;;85.72;41.42;;;8.20;99.90;;;;;;4897551;29;20038;-75
2023/02/24 01:13:57;;;;;;;84.40;40.90;;;8.20;99.90;;;;;;4902388;29;20044;-75
2023/02/24 01:16:23;;;;;;;88.45;41.72;;;8.10;99.90;;;;;;4899334;29;20424;-75
2023/02/24 01:18:49;;;;;;;82.32;38.65;;;8.10;99.90;;;;;;4899913;29;20035;-75
2023/02/24 01:21:18;;;;;;;77.63;40.22;;;8.00;99.90;;;;;;4896447;29;20514;-75
2023/02/24 01:23:48;;;;;;;74.47;38.50;;;8.00;99.90;;;;;;4900881;29;20036;-75
2023/02/24 01:26:15;;;;;;;81.20;39.45;;;8.00;99.90;;;;;;4897638;29;20438;-75
2023/02/24 01:28:42;;;;;;;82.22;39.88;;;8.10;99.90;;;;;;4897912;29;20072;-75
2023/02/24 01:31:08;;;;;;;77.45;39.97;;;8.10;99.90;;;;;;4902204;29;20434;-75
2023/02/24 01:33:36;;;;;;;93.03;42.47;;;8.20;99.90;;;;;;4898929;29;20033;-75
2023/02/24 01:36:14;;;;;;;87.95;42.45;;;8.10;99.90;;;;;;4900591;29;20043;-75
2023/02/24 01:38:43;;;;;;;84.50;40.10;;;8.10;99.90;;;;;;4901542;29;20036;-75
2023/02/24 01:41:15;;;;;;;91.22;43.75;;;8.10;99.90;;;;;;4893996;29;20036;-75
2023/02/24 01:44:08;;;;;;;86.75;42.47;;;8.20;99.90;;;;;;4900346;29;20562;-75
2023/02/24 01:46:45;;;;;;;88.97;43.60;;;8.20;99.90;;;;;;4902577;29;20091;-75
2023/02/24 01:49:13;;;;;;;93.80;45.15;;;8.20;99.90;;;;;;4901785;29;20098;-75
2023/02/24 01:51:49;;;;;;;88.38;43.33;;;8.10;99.90;;;;;;4896844;29;20031;-75
2023/02/24 01:54:20;;;;;;;89.03;43.28;;;8.10;99.90;;;;;;4905678;29;20604;-75
2023/02/24 01:56:51;;;;;;;86.35;43.35;;;8.10;99.90;;;;;;4901138;29;20096;-75
2023/02/24 01:59:19;;;;;;;92.70;42.00;;;8.10;99.90;;;;;;4896217;29;20080;-75
2023/02/24 02:01:47;;;;;;;90.75;44.60;;;8.10;99.90;;;;;;4899598;29;20039;-75
2023/02/24 02:04:26;;;;;;;83.28;41.53;;;8.10;99.90;;;;;;4898341;29;20130;-75
2023/02/24 02:06:52;;;;;;;85.72;43.78;;;8.00;99.90;;;;;;4901444;29;20458;-74
2023/02/24 02:09:19;;;;;;;87.72;43.60;;;8.00;99.90;;;;;;4901396;29;20063;-75
2023/02/24 02:11:48;;;;;;;86.30;44.17;;;8.00;99.90;;;;;;4899154;29;20087;-74
2023/02/24 02:14:20;;;;;;;85.18;44.03;;;8.00;99.90;;;;;;4897187;29;20390;-74
2023/02/24 02:16:50;;;;;;;92.75;43.78;;;8.10;99.90;;;;;;4896900;29;20032;-75
2023/02/24 02:19:37;;;;;;;84.40;42.50;;;8.20;99.90;;;;;;4905237;29;20445;-75
2023/02/24 02:22:25;;;;;;;91.80;41.83;;;8.10;99.90;;;;;;4901953;29;20846;-75
2023/02/24 02:25:08;;;;;;;89.75;44.22;;;8.00;99.90;;;;;;4900935;29;20035;-75
2023/02/24 02:27:56;;;;;;;84.53;42.22;;;8.00;99.90;;;;;;4901128;29;20031;-75
2023/02/24 02:30:42;;;;;;;96.18;44.78;;;7.90;99.90;;;;;;4902664;29;20035;-75
2023/02/24 02:33:37;;;;;;;90.35;45.03;;;7.90;99.90;;;;;;4903664;29;20036;-75
2023/02/24 02:36:25;;;;;;;89.00;42.88;;;8.00;99.90;;;;;;4898615;29;20080;-75
2023/02/24 02:39:03;;;;;;;83.97;40.97;;;8.00;99.90;;;;;;4903848;29;20028;-74
2023/02/24 02:42:00;;;;;;;83.35;41.83;;;8.00;99.90;;;;;;4902522;29;20032;-74
2023/02/24 02:44:38;;;;;;;90.63;43.83;;;8.00;99.90;;;;;;4904612;29;20487;-75
2023/02/24 02:47:17;;;;;;;90.40;44.78;;;7.90;99.90;;;;;;4902896;29;20032;-75
2023/02/24 02:49:51;;;;;;;92.75;45.25;;;8.10;99.90;;;;;;4901946;29;20056;-75
2023/02/24 02:52:27;;;;;;;95.13;45.88;;;8.00;99.90;;;;;;4902108;29;20419;-75
2023/02/24 02:54:59;;;;;;;87.93;43.35;;;8.00;99.90;;;;;;4901394;29;20032;-75
2023/02/24 02:57:36;;;;;;;97.47;46.03;;;7.90;99.90;;;;;;4902812;29;20487;-75
2023/02/24 03:00:11;;;;;;;96.85;46.00;;;7.80;99.90;;;;;;4902567;29;20428;-75
2023/02/24 03:02:40;;;;;;;90.63;43.63;;;7.90;99.90;;;;;;4902051;29;20039;-75
2023/02/24 03:05:09;;;;;;;86.93;43.95;;;7.80;99.90;;;;;;4902445;29;20032;-75
2023/02/24 03:07:41;;;;;;;85.68;42.53;;;7.90;99.90;;;;;;4901806;29;20075;-74
2023/02/24 03:10:19;;;;;;;87.65;41.90;;;7.80;99.90;;;;;;4902770;29;20047;-75
2023/02/24 03:12:49;;;;;;;82.80;42.50;;;7.80;99.90;;;;;;4903338;29;20040;-75
2023/02/24 03:15:19;;;;;;;89.20;44.63;;;7.90;99.90;;;;;;4898564;29;20427;-75
2023/02/24 03:17:46;;;;;;;89.15;43.30;;;7.90;99.90;;;;;;4905172;29;20058;-74
2023/02/24 03:20:22;;;;;;;88.00;43.10;;;7.90;99.90;;;;;;4907064;29;20038;-75
2023/02/24 03:23:10;;;;;;;89.72;43.10;;;8.00;99.90;;;;;;4907714;29;20055;-75
2023/02/24 03:25:46;;;;;;;87.40;43.40;;;8.00;99.90;;;;;;4901968;29;20028;-75
2023/02/24 03:28:27;;;;;;;80.55;40.63;;;8.10;99.90;;;;;;4898445;29;20483;-75
2023/02/24 03:31:06;;;;;;;86.57;43.30;;;8.00;99.90;;;;;;4900069;29;20111;-75
2023/02/24 03:33:49;;;;;;;88.15;41.35;;;8.00;99.90;;;;;;4897990;29;20040;-75
2023/02/24 03:36:15;;;;;;;77.07;42.25;;;8.00;99.90;;;;;;4902760;29;20061;-75
2023/02/24 03:38:42;;;;;;;89.68;42.17;;;8.00;99.90;;;;;;4896859;29;20060;-74
2023/02/24 03:41:10;;;;;;;92.00;44.58;;;8.00;99.90;;;;;;4901076;29;20516;-75
2023/02/24 03:43:43;;;;;;;89.72;42.33;;;7.90;99.90;;;;;;4899793;29;20398;-75
2023/02/24 03:46:09;;;;;;;81.88;42.42;;;7.90;99.90;;;;;;4901898;29;20060;-75
2023/02/24 03:48:46;;;;;;;91.30;42.40;;;7.90;99.90;;;;;;4903110;29;20051;-75
2023/02/24 03:51:22;;;;;;;85.88;42.42;;;7.90;99.90;;;;;;4902442;29;20523;-74
2023/02/24 03:53:56;;;;;;;92.20;44.63;;;7.90;99.90;;;;;;4901233;29;20056;-75
2023/02/24 03:56:39;;;;;;;85.43;42.13;;;7.90;99.90;;;;;;4899725;29;20029;-75
2023/02/24 03:59:56;;;;;;;88.25;44.65;;;7.80;99.90;;;;;;4900773;29;20147;-75
2023/02/24 04:02:28;;;;;;;91.43;43.65;;;7.80;99.90;;;;;;4883590;29;20399;-75
2023/02/24 04:05:08;;;;;;;89.88;42.70;;;7.80;99.90;;;;;;4894398;29;20028;-75
2023/02/24 04:07:51;;;;;;;86.95;44.28;;;7.90;99.90;;;;;;4895535;29;20390;-74
2023/02/24 04:10:33;;;;;;;82.82;42.55;;;7.90;99.90;;;;;;4896425;29;20087;-75
2023/02/24 04:13:27;;;;;;;89.63;45.45;;;8.00;99.90;;;;;;4896291;29;20110;-75
2023/02/24 04:16:01;;;;;;;89.55;43.42;;;8.00;99.90;;;;;;4866899;29;20052;-75
2023/02/24 04:18:30;;;;;;;102.28;45.25;;;7.90;99.90;;;;;;4895646;29;20123;-75
2023/02/24 04:20:58;;;;;;;90.38;44.90;;;7.90;99.90;;;;;;4892930;29;20075;-75
2023/02/24 04:23:37;;;;;;;94.40;45.53;;;8.00;99.90;;;;;;4894868;29;20044;-75
2023/02/24 04:26:03;;;;;;;94.35;47.97;;;8.00;99.90;;;;;;4893634;29;20131;-75
2023/02/24 04:28:30;;;;;;;92.93;45.28;;;7.90;99.90;;;;;;4895567;29;20040;-74
2023/02/24 04:31:04;;;;;;;86.38;42.75;;;7.90;99.90;;;;;;4895713;29;20028;-75
2023/02/24 04:33:32;;;;;;;95.82;46.53;;;8.00;99.90;;;;;;4895121;29;20024;-75
2023/02/24 04:35:58;;;;;;;85.13;41.53;;;8.00;99.90;;;;;;4896014;29;20537;-74
2023/02/24 04:38:24;;;;;;;98.93;45.70;;;8.10;99.90;;;;;;4899557;29;20574;-75
2023/02/24 04:40:50;;;;;;;94.72;46.35;;;8.10;99.90;;;;;;4895502;29;20852;-75
2023/02/24 04:43:16;;;;;;;99.65;44.28;;;8.10;99.90;;;;;;4894735;29;20038;-75
2023/02/24 04:45:43;;;;;;;81.70;43.08;;;8.00;99.90;;;;;;4897377;29;20150;-75
2023/02/24 04:48:11;;;;;;;86.15;44.47;;;7.90;99.90;;;;;;4896760;29;20075;-75
2023/02/24 04:50:39;;;;;;;83.30;40.67;;;7.90;99.90;;;;;;4897780;29;20052;-75
2023/02/24 04:53:13;;;;;;;92.32;44.47;;;7.90;99.90;;;;;;4894378;29;20111;-75
2023/02/24 04:55:48;;;;;;;;;;;7.90;99.90;;;;;;4896599;29;20033;-75
2023/02/24 04:58:18;;;;;;;84.63;41.00;;;7.90;99.90;;;;;;4897319;29;19922;-75
2023/02/24 05:00:47;;;;;;;87.05;40.67;;;7.80;99.90;;;;;;4895544;29;20036;-75
2023/02/24 05:03:13;;;;;;;88.63;42.45;;;7.80;99.90;;;;;;4895512;29;20024;-75
2023/02/24 05:05:41;;;;;;;94.30;44.13;;;7.90;99.90;;;;;;4896123;29;20044;-75
2023/02/24 05:08:09;;;;;;;86.20;42.47;;;7.90;99.90;;;;;;4896386;29;20043;-75
2023/02/24 05:10:45;;;;;;;86.80;43.42;;;8.00;99.90;;;;;;4894343;29;20123;-75
2023/02/24 05:13:26;;;;;;;85.75;41.75;;;8.00;99.90;;;;;;4898939;29;20032;-75
2023/02/24 05:15:52;;;;;;;95.05;43.97;;;8.00;99.90;;;;;;4896049;29;20514;-75
2023/02/24 05:18:17;;;;;;;94.75;43.58;;;7.90;99.90;;;;;;4894413;29;20032;-75
2023/02/24 05:23:37;;;;;;;84.82;43.85;;;7.90;99.90;;;;;;4903658;29;20590;-75
2023/02/24 05:26:08;;;;;;;92.55;44.45;;;7.90;99.90;;;;;;4898638;29;20024;-75
2023/02/24 05:28:36;;;;;;;92.10;42.45;;;7.90;99.90;;;;;;4897192;29;20656;-75
2023/02/24 05:31:29;;;;;;;93.50;44.88;;;7.90;99.90;;;;;;4900284;29;20633;-75
2023/02/24 05:34:01;;;;;;;87.32;43.85;;;8.00;99.90;;;;;;4893990;29;20051;-75
2023/02/24 05:36:30;;;;;;;83.97;41.35;;;7.90;99.90;;;;;;4893364;29;20036;-75
2023/02/24 05:38:57;;;;;;;77.40;41.90;;;7.70;99.90;;;;;;4892730;29;20033;-75
2023/02/24 05:41:31;;;;;;;92.70;45.00;;;7.60;99.90;;;;;;4892471;29;20048;-74
2023/02/24 05:44:01;;;;;;;89.68;44.85;;;7.50;99.90;;;;;;4900654;29;20128;-75
2023/02/24 05:46:31;;;;;;;94.18;43.63;;;7.40;99.90;;;;;;4898086;29;20043;-74
2023/02/24 05:49:02;;;;;;;90.63;42.28;;;7.40;99.90;;;;;;4899277;29;21746;-75
2023/02/24 05:51:35;;;;;;;92.72;44.03;;;7.30;99.90;;;;;;4894156;29;20032;-75
2023/02/24 05:54:06;;;;;;;92.28;41.83;;;7.20;99.90;;;;;;4899011;29;20805;-75
2023/02/24 05:56:33;;;;;;;89.32;43.13;;;7.10;99.90;;;;;;4898841;29;20497;-75
2023/02/24 05:59:01;;;;;;;86.43;44.22;;;7.30;99.90;;;;;;4895990;29;20037;-75
2023/02/24 06:01:32;;;;;;;92.75;43.45;;;7.40;99.90;;;;;;4899581;29;20657;-75
2023/02/24 06:04:05;;;;;;;95.90;47.15;;;7.50;99.90;;;;;;4898636;29;20076;-75
2023/02/24 06:06:36;;;;;;;94.22;47.17;;;7.50;99.90;;;;;;4893388;29;20032;-75
2023/02/24 06:09:12;;;;;;;102.15;47.88;;;7.50;99.90;;;;;;4897103;29;20040;-75
2023/02/24 06:11:39;;;;;;;96.20;47.75;;;7.50;99.90;;;;;;4897394;29;20185;-75
2023/02/24 06:14:06;;;;;;;88.55;44.22;;;7.60;99.90;;;;;;4897188;29;20040;-75
2023/02/24 06:16:33;;;;;;;92.78;44.88;;;7.50;99.90;;;;;;4897571;29;20040;-75
2023/02/24 06:18:59;;;;;;;85.35;42.45;;;7.40;99.90;;;;;;4898386;29;20377;-75
2023/02/24 06:21:28;;;;;;;91.18;44.22;;;7.40;99.90;;;;;;4900882;29;20050;-75
2023/02/24 06:23:56;;;;;;;100.80;45.35;;;7.40;99.90;;;;;;4902124;29;21888;-75
2023/02/24 06:26:23;;;;;;;92.28;46.00;;;7.30;99.90;;;;;;4897391;29;20378;-75
2023/02/24 06:28:52;;;;;;;85.65;43.50;;;7.30;99.90;;;;;;4902350;29;20036;-76
2023/02/24 06:31:20;;;;;;;91.57;44.47;;;7.50;99.90;;;;;;4897329;29;20192;-74
2023/02/24 06:33:46;;;;;;;89.57;43.08;;;7.50;99.90;;;;;;4901119;29;20087;-76
2023/02/24 06:36:15;;;;;;;92.40;45.05;;;7.50;99.90;;;;;;4897113;29;20123;-76
2023/02/24 06:38:41;;;;;;;98.18;46.17;;;7.60;99.90;;;;;;4900082;29;20025;-78
2023/02/24 06:41:10;;;;;;;93.93;43.45;;;7.50;99.90;;;;;;4911043;29;20125;-75
2023/02/24 06:43:42;;;;;;;82.10;46.53;;;7.60;99.90;;;;;;4896024;29;20036;-76
2023/02/24 06:46:09;;;;;;;88.53;41.83;;;7.60;99.90;;;;;;4902691;29;20036;-75
2023/02/24 06:48:36;;;;;;;90.47;44.28;;;7.50;99.90;;;;;;4900068;29;20053;-74
2023/02/24 06:51:17;;;;;;;86.82;45.45;;;7.50;99.90;;;;;;4899639;29;20049;-75
2023/02/24 06:53:43;;;;;;;93.43;45.22;;;7.50;99.90;;;;;;4894589;29;20040;-75
2023/02/24 06:56:13;;;;;;;97.70;45.13;;;7.50;99.90;;;;;;4904581;29;20028;-74
2023/02/24 06:58:42;;;;;;;92.65;44.05;;;7.50;99.90;;;;;;4898765;29;20416;-74
2023/02/24 07:01:10;;;;;;;98.32;47.10;;;7.40;99.90;;;;;;4899780;29;20047;-75
2023/02/24 07:03:39;;;;;;;94.20;45.80;;;7.60;99.90;;;;;;4896512;29;20143;-75
2023/02/24 07:06:19;;;;;;;90.38;43.03;;;7.50;99.90;;;;;;4892470;29;20364;-74
2023/02/24 07:08:46;;;;;;;90.22;44.13;;;7.50;99.90;;;;;;4897163;29;20076;-74
2023/02/24 07:11:12;;;;;;;87.82;45.50;;;7.40;99.90;;;;;;4898313;29;20111;-73
2023/02/24 07:13:39;;;;;;;81.25;41.92;;;7.50;99.90;;;;;;4889208;29;20042;-74
2023/02/24 07:16:06;;;;;;;90.55;43.58;;;7.40;99.90;;;;;;4891123;29;20121;-75
2023/02/24 07:18:35;;;;;;;93.47;41.75;;;7.40;99.90;;;;;;4890334;29;20048;-74
2023/02/24 07:21:10;;;;;;;86.13;42.80;;;7.40;99.90;;;;;;4889846;29;20432;-74
2023/02/24 07:23:39;;;;;;;;;;;7.30;99.90;;;;;;4894210;29;20935;-74
2023/02/24 07:26:18;;;;;;;84.55;41.78;;;7.20;99.90;;;;;;4904421;29;19925;-74
2023/02/24 07:28:46;;;;;;;95.72;44.85;;;7.30;99.90;;;;;;4888432;29;20515;-74
2023/02/24 07:31:15;;;;;;;87.15;44.13;;;7.40;99.90;;;;;;4892848;29;20046;-74
2023/02/24 07:33:45;;;;;;;85.95;43.50;;;7.60;99.90;;;;;;4889949;29;20016;-74
2023/02/24 07:36:21;;;;;;;96.82;44.92;;;7.70;99.90;;;;;;4892546;29;20043;-75
2023/02/24 07:38:51;;;;;;;86.72;44.05;;;7.90;99.90;;;;;;4895153;29;20076;-75
2023/02/24 07:41:21;;;;;;;84.50;40.20;;;7.80;99.90;;;;;;4892853;29;20044;-75
2023/02/24 07:43:51;;;;;;;81.90;41.67;;;7.70;99.90;;;;;;4893015;29;20032;-75
2023/02/24 07:46:26;;;;;;;90.80;43.63;;;7.50;99.90;;;;;;4895889;29;20039;-75
2023/02/24 07:48:53;;;;;;;82.57;40.55;;;7.50;99.90;;;;;;4893831;29;20102;-75
2023/02/24 07:51:21;;;;;;;76.95;39.50;;;7.60;99.90;;;;;;4900641;29;20022;-75
2023/02/24 07:53:49;;;;;;;80.25;41.72;;;7.60;99.90;;;;;;4896001;29;20024;-75
2023/02/24 07:56:18;;;;;;;94.93;43.72;;;7.80;99.90;;;;;;4895539;29;20907;-75
2023/02/24 07:58:49;;;;;;;89.25;43.35;;;7.80;99.90;;;;;;4897681;29;20028;-75
2023/02/24 08:01:21;;;;;;;84.25;42.45;;;8.00;99.90;;;;;;4895049;29;20040;-75
2023/02/24 08:03:54;;;;;;;92.03;44.53;;;8.20;99.90;;;;;;4898955;29;20028;-75
2023/02/24 08:06:32;;;;;;;85.15;41.72;;;8.30;99.90;;;;;;4890464;29;20029;-75
2023/02/24 08:08:58;;;;;;;80.35;42.85;;;8.40;99.90;;;;;;4903454;29;20036;-75
2023/02/24 08:11:34;;;;;;;86.65;43.63;;;8.50;99.90;;;;;;4894528;29;20028;-75
2023/02/24 08:14:15;;;;;;;88.13;42.58;;;8.50;99.90;;;;;;4904216;29;20035;-75
2023/02/24 08:16:42;;;;;;;86.13;42.08;;;8.50;99.90;;;;;;4903735;29;20039;-75
2023/02/24 08:19:12;;;;;;;90.05;43.53;;;8.30;99.90;;;;;;4900601;29;20559;-75
2023/02/24 08:21:46;;;;;;;82.40;40.67;;;8.30;99.90;;;;;;4893162;29;20059;-75
2023/02/24 08:24:16;;;;;;;77.88;40.80;;;8.40;99.90;;;;;;4900282;29;20091;-75
2023/02/24 08:27:05;;;;;;;71.80;39.30;;;8.50;99.90;;;;;;4902706;29;20028;-75
2023/02/24 08:29:57;;;;;;;76.72;39.13;;;8.60;99.90;;;;;;4899084;29;20040;-75
2023/02/24 08:32:23;;;;;;;78.78;39.80;;;8.60;99.90;;;;;;4897355;29;20054;-75
2023/02/24 08:34:49;;;;;;;83.38;39.60;;;8.70;99.90;;;;;;4899238;29;20395;-75
2023/02/24 08:37:16;;;;;;;79.53;40.03;;;8.70;99.90;;;;;;4892724;29;20059;-75
2023/02/24 08:39:43;;;;;;;85.57;41.25;;;8.90;99.90;;;;;;4909274;29;20040;-75
2023/02/24 08:42:13;;;;;;;74.90;38.13;;;9.00;99.90;;;;;;4893314;29;20032;-75
2023/02/24 08:44:39;;;;;;;76.70;40.88;;;9.20;99.90;;;;;;4892814;29;20039;-75
2023/02/24 08:47:06;;;;;;;84.35;40.47;;;9.10;99.90;;;;;;4900014;29;20475;-75
2023/02/24 08:49:32;;;;;;;81.10;40.28;;;9.10;99.90;;;;;;4894834;29;20076;-75
2023/02/24 08:52:01;;;;;;;76.10;37.83;;;9.20;99.90;;;;;;4894972;29;20040;-75
2023/02/24 08:54:30;;;;;;;72.78;37.10;;;9.20;99.90;;;;;;4899400;29;20028;-75
2023/02/24 08:57:06;;;;;;;77.53;39.35;;;9.10;99.90;;;;;;4898066;29;20060;-75
2023/02/24 08:59:36;;;;;;;75.43;37.63;;;9.20;99.90;;;;;;4888999;29;20107;-75
2023/02/24 09:02:23;;;;;;;80.22;43.28;;;9.10;99.90;;;;;;4902346;29;20392;-75
2023/02/24 09:05:10;;;;;;;74.60;37.53;;;9.10;99.90;;;;;;4899517;29;20032;-75
2023/02/24 09:07:37;;;;;;;71.07;36.20;;;8.90;99.90;;;;;;4907682;29;20082;-75
2023/02/24 09:10:16;;;;;;;78.85;37.97;;;8.90;99.90;;;;;;4907843;29;20024;-74
2023/02/24 09:12:43;;;;;;;93.28;39.10;;;9.00;99.90;;;;;;4901919;29;20028;-75
2023/02/24 09:15:10;;;;;;;74.93;38.13;;;9.00;99.90;;;;;;4898144;29;20083;-75
2023/02/24 09:17:39;;;;;;;78.80;37.08;;;9.10;99.90;;;;;;4900452;29;20114;-75
2023/02/24 09:23:07;;;;;;;73.72;38.28;;;9.30;99.90;;;;;;4892929;29;20040;-75
2023/02/24 09:25:48;;;;;;;75.63;40.00;;;9.40;99.90;;;;;;4892552;29;20100;-75
2023/02/24 09:28:17;;;;;;;77.90;39.25;;;9.30;99.90;;;;;;4902486;29;20486;-74
2023/02/24 09:31:03;;;;;;;76.25;38.38;;;9.30;99.90;;;;;;4901573;29;20694;-75
2023/02/24 09:33:37;;;;;;;75.65;39.22;;;9.30;99.90;;;;;;4900712;29;20091;-75
2023/02/24 09:36:26;;;;;;;79.78;39.92;;;9.20;99.90;;;;;;4898759;29;20028;-75
2023/02/24 09:44:36;;;;;;;77.65;40.42;;;9.30;99.90;;;;;;4857108;29;20046;-75
2023/02/24 09:47:18;;;;;;;76.68;38.42;;;9.40;99.90;;;;;;4896644;29;20044;-74
2023/02/24 09:50:03;;;;;;;77.32;36.97;;;9.30;99.90;;;;;;4909728;29;20115;-75
2023/02/24 09:52:42;;;;;;;79.90;40.88;;;9.30;99.90;;;;;;4902770;29;20108;-74
2023/02/24 09:55:25;;;;;;;82.85;38.92;;;9.50;99.90;;;;;;4900887;29;20032;-75
2023/02/24 10:01:19;;;;;;;79.82;41.25;;;9.50;99.90;;;;;;4901842;29;20056;-74
2023/02/24 10:04:03;;;;;;;71.80;38.13;;;9.70;99.90;;;;;;4901954;29;20037;-75
2023/02/24 10:06:34;;;;;;;77.65;39.65;;;9.70;99.90;;;;;;4905117;29;20184;-75
2023/02/24 10:09:23;;;;;;;78.35;42.08;;;9.50;99.90;;;;;;4898699;29;20103;-75
2023/02/24 10:12:15;;;;;;;75.03;39.00;;;9.70;99.90;;;;;;4905083;29;20506;-74
2023/02/24 10:14:53;;;;;;;87.13;43.03;;;9.80;99.90;;;;;;4898717;29;20043;-75
2023/02/24 10:17:38;;;;;;;83.68;40.17;;;9.80;99.90;;;;;;4905687;29;20035;-74
2023/02/24 10:20:22;;;;;;;;;;;9.70;99.90;;;;;;4904007;29;20034;-75
2023/02/24 10:23:03;;;;;;;73.85;38.88;;;9.80;99.90;;;;;;4902448;29;19915;-74
2023/02/24 10:25:38;;;;;;;77.90;39.58;;;9.80;99.90;;;;;;4905614;29;20039;-74
2023/02/24 10:28:11;;;;;;;86.47;45.10;;;9.70;99.90;;;;;;4902036;29;20032;-74
2023/02/24 10:31:23;;;;;;;81.63;40.85;;;9.70;99.90;;;;;;4899636;29;20036;-75
2023/02/24 10:33:53;;;;;;;80.57;39.40;;;9.80;99.90;;;;;;4902097;29;20153;-75
2023/02/24 10:36:29;;;;;;;83.07;42.92;;;9.90;99.90;;;;;;4898581;29;20043;-75
2023/02/24 10:38:55;;;;;;;83.47;41.63;;;9.80;99.90;;;;;;4900460;29;20056;-74
2023/02/24 10:41:28;;;;;;;78.85;41.40;;;9.70;99.90;;;;;;4898141;29;20043;-74
2023/02/24 10:43:55;;;;;;;81.03;40.92;;;9.80;99.90;;;;;;4897831;29;20062;-75
2023/02/24 10:46:32;;;;;;;76.57;39.33;;;9.80;99.90;;;;;;4896315;29;20599;-75
2023/02/24 10:48:59;;;;;;;82.40;42.45;;;9.90;99.90;;;;;;4897146;29;21008;-74
2023/02/24 10:51:31;;;;;;;76.93;41.25;;;10.00;99.90;;;;;;4899327;29;20719;-74
2023/02/24 10:54:33;;;;;;;86.13;37.50;;;10.10;99.90;;;;;;4906039;29;20115;-74
2023/02/24 10:57:06;;;;;;;82.60;40.97;;;10.40;99.90;;;;;;4902337;29;20559;-74
2023/02/24 10:59:57;;;;;;;84.97;42.22;;;10.30;99.90;;;;;;4898256;29;20051;-74
2023/02/24 11:02:28;;;;;;;83.93;40.05;;;10.30;99.90;;;;;;4899615;29;20147;-74
2023/02/24 11:07:42;;;;;;;81.57;41.70;;;10.30;99.90;;;;;;4903407;29;20044;-75
2023/02/24 11:10:14;;;;;;;76.22;41.83;;;10.30;99.90;;;;;;4900283;29;20076;-74
2023/02/24 11:18:23;;;;;;;82.20;42.63;;;10.60;99.90;;;;;;4898152;29;20047;-75
2023/02/24 11:21:05;;;;;;;79.00;41.35;;;10.60;99.90;;;;;;4898249;29;20040;-74
2023/02/24 11:23:39;;;;;;;89.90;44.72;;;10.70;99.90;;;;;;4899384;29;20043;-75
2023/02/24 11:26:30;;;;;;;82.55;42.58;;;10.80;99.90;;;;;;4901020;29;20028;-75
2023/02/24 11:29:14;;;;;;;82.28;42.10;;;10.80;99.90;;;;;;4900127;29;20028;-75
2023/02/24 11:32:01;;;;;;;87.40;41.75;;;10.80;99.90;;;;;;4899338;29;20033;-75
2023/02/24 11:34:52;;;;;;;81.38;40.40;;;10.90;99.90;;;;;;4893494;29;20032;-75
2023/02/24 11:37:36;;;;;;;96.40;43.85;;;11.10;99.90;;;;;;4894171;29;20032;-75
2023/02/24 11:40:15;;;;;;;83.72;43.97;;;11.30;99.90;;;;;;4891749;29;20029;-75
2023/02/24 11:42:55;;;;;;;79.55;42.75;;;11.40;99.90;;;;;;4897302;29;20064;-74
2023/02/24 11:45:41;;;;;;;81.75;42.78;;;11.20;99.90;;;;;;4895079;29;20080;-75
2023/02/24 11:48:27;;;;;;;83.45;42.30;;;11.20;99.90;;;;;;4897717;29;20029;-74
2023/02/24 11:51:11;;;;;;;89.85;43.75;;;11.10;99.90;;;;;;4901584;29;20038;-74
2023/02/24 11:53:54;;;;;;;82.43;43.37;;;11.10;99.90;;;;;;4894053;29;20622;-74
2023/02/24 11:56:41;;;;;;;80.97;42.65;;;11.10;99.90;;;;;;4902507;29;20028;-74
2023/02/24 11:59:28;;;;;;;81.65;40.58;;;11.00;99.90;;;;;;4905019;29;20024;-75
2023/02/24 12:02:09;;;;;;;83.30;41.15;;;11.00;99.90;;;;;;4897713;29;20052;-75
2023/02/24 12:04:55;;;;;;;106.43;60.03;;;11.10;99.90;;;;;;4896636;29;20098;-75
2023/02/24 12:07:41;;;;;;;78.97;40.63;;;11.20;99.90;;;;;;4902044;29;20040;-74
2023/02/24 12:10:21;;;;;;;100.95;55.65;;;11.50;99.90;;;;;;4899966;29;20035;-75
2023/02/24 12:13:06;;;;;;;81.45;43.92;;;11.60;99.90;;;;;;4905353;29;20566;-74
2023/02/24 12:15:47;;;;;;;83.63;42.92;;;11.60;99.90;;;;;;4899303;29;20081;-75
2023/02/24 12:18:22;;;;;;;84.65;42.42;;;11.50;99.90;;;;;;4892565;29;20042;-75
2023/02/24 12:21:13;;;;;;;85.60;46.17;;;11.30;99.90;;;;;;4901917;29;20051;-77
2023/02/24 12:23:43;;;;;;;80.25;42.20;;;11.40;99.90;;;;;;4901720;29;20032;-77
2023/02/24 12:26:19;;;;;;;87.25;43.70;;;11.60;99.90;;;;;;4898806;29;20128;-74
2023/02/24 12:29:03;;;;;;;81.60;41.28;;;11.90;99.90;;;;;;4891836;29;20036;-74
2023/02/24 12:32:06;;;;;;;83.35;41.88;;;11.90;99.90;;;;;;4896597;29;20040;-74
2023/02/24 12:34:54;;;;;;;80.03;41.95;;;12.00;99.90;;;;;;4877955;29;20048;-73
2023/02/24 12:37:47;;;;;;;80.25;43.40;;;12.00;99.90;;;;;;4894320;29;20040;-74
2023/02/24 12:40:35;;;;;;;84.10;43.85;;;12.10;99.90;;;;;;4892260;29;20437;-74
2023/02/24 12:43:20;;;;;;;83.97;45.10;;;12.30;99.90;;;;;;4899527;29;20032;-74
2023/02/24 12:45:46;;;;;;;83.63;42.67;;;12.30;99.90;;;;;;4892156;29;20032;-74
2023/02/24 12:48:30;;;;;;;88.20;43.65;;;12.20;99.90;;;;;;4898291;29;20044;-73
2023/02/24 12:51:24;;;;;;;77.10;43.53;;;12.30;99.90;;;;;;4889965;29;20024;-74
2023/02/24 12:54:21;;;;;;;76.00;43.85;;;12.20;99.90;;;;;;4896767;29;20036;-74
2023/02/24 12:57:06;;;;;;;87.70;45.35;;;12.30;99.90;;;;;;4895367;29;20040;-74
2023/02/24 12:59:39;;;;;;;86.43;48.60;;;12.30;99.90;;;;;;4892863;29;20499;-75
2023/02/24 13:02:57;;;;;;;79.22;42.13;;;12.10;99.90;;;;;;4891471;29;20435;-74
2023/02/24 13:05:30;;;;;;;86.85;43.78;;;12.30;99.90;;;;;;4870197;29;20041;-74
2023/02/24 13:08:37;;;;;;;79.25;41.88;;;12.20;99.90;;;;;;4892886;29;20047;-74
2023/02/24 13:11:10;;;;;;;81.40;43.15;;;12.00;99.90;;;;;;4890764;29;20029;-73
2023/02/24 13:13:45;;;;;;;88.10;45.00;;;12.00;99.90;;;;;;4896579;29;20467;-73
2023/02/24 13:16:11;;;;;;;;;;;12.10;99.90;;;;;;4894358;29;20443;-74
2023/02/24 13:18:38;;;;;;;78.32;43.28;;;12.20;99.90;;;;;;4893225;29;19915;-73
2023/02/24 13:21:21;;;;;;;82.97;45.03;;;12.50;99.90;;;;;;4896795;29;20119;-75
2023/02/24 13:24:01;;;;;;;83.20;43.60;;;12.30;99.90;;;;;;4896856;29;20736;-74
2023/02/24 13:26:30;;;;;;;87.57;45.60;;;12.30;99.90;;;;;;4890315;29;20032;-74
2023/02/24 13:29:16;;;;;;;81.82;44.10;;;12.10;99.90;;;;;;4891925;29;20040;-74
2023/02/24 13:31:47;;;;;;;86.43;45.50;;;12.20;99.90;;;;;;4899994;29;20036;-74
2023/02/24 13:34:40;;;;;;;87.65;46.13;;;12.20;99.90;;;;;;4900322;29;20024;-74
2023/02/24 13:37:08;;;;;;;91.25;47.03;;;12.20;99.90;;;;;;4896353;29;20043;-74
2023/02/24 13:39:36;;;;;;;92.53;48.97;;;12.20;99.90;;;;;;4891171;29;20107;-74